Time;durP1;ratioP1;P1;durP2;ratioP2;P2;SDS_P1;SDS_P2;PMS_P1;PMS_P2;Temp;Humidity;BMP_temperature;BMP_pressure;BME280_temperature;BME280_humidity;BME280_pressure;Samples;Min_cycle;Max_cycle;Signal;HPM_P1;HPM_P2
2022/01/11 00:02:05;;;;;;;0.63;0.63;;;;;;;;;;4977198;28;20524;-85
2022/01/11 00:04:31;;;;;;;0.10;0.10;;;;;;;;;;4975544;28;20122;-86
2022/01/11 00:06:59;;;;;;;0.17;0.17;;;;;;;;;;4972819;28;20070;-85
2022/01/11 00:09:40;;;;;;;0.52;0.40;;;;;;;;;;4982505;28;20038;-86
2022/01/11 00:12:08;;;;;;;0.10;0.10;;;;;;;;;;4979961;28;20495;-86
2022/01/11 00:14:34;;;;;;;0.10;0.10;;;;;;;;;;4982491;28;20026;-86
2022/01/11 00:17:00;;;;;;;0.20;0.20;;;;;;;;;;4975030;28;20060;-85
2022/01/11 00:19:28;;;;;;;0.10;0.10;;;;;;;;;;4976213;28;20305;-85
2022/01/11 00:21:54;;;;;;;0.10;0.10;;;;;;;;;;4982858;28;20030;-86
2022/01/11 00:24:28;;;;;;;0.13;0.13;;;;;;;;;;4982323;28;20038;-87
2022/01/11 00:26:54;;;;;;;0.10;0.10;;;;;;;;;;4982584;28;20074;-86
2022/01/11 00:29:20;;;;;;;0.20;0.20;;;;;;;;;;4977694;28;20206;-85
2022/01/11 00:31:47;;;;;;;0.10;0.10;;;;;;;;;;4982671;28;20121;-86
2022/01/11 00:34:16;;;;;;;0.10;0.10;;;;;;;;;;4983697;28;20122;-86
2022/01/11 00:36:43;;;;;;;0.00;0.00;;;;;;;;;;4983970;28;20034;-85
2022/01/11 00:39:12;;;;;;;0.30;0.30;;;;;;;;;;4979056;28;20034;-85
2022/01/11 00:41:39;;;;;;;0.10;0.10;;;;;;;;;;4982243;28;20034;-85
2022/01/11 00:44:06;;;;;;;0.52;0.25;;;;;;;;;;4935253;28;1449677;-86
2022/01/11 00:46:32;;;;;;;0.10;0.10;;;;;;;;;;4986705;28;20432;-86
2022/01/11 00:48:58;;;;;;;0.20;0.20;;;;;;;;;;4986041;28;20045;-85
2022/01/11 00:51:24;;;;;;;0.00;0.00;;;;;;;;;;4984943;28;20034;-86
2022/01/11 00:53:50;;;;;;;0.10;0.10;;;;;;;;;;4979516;28;20053;-86
2022/01/11 00:56:16;;;;;;;0.07;0.07;;;;;;;;;;4974270;28;20058;-86
2022/01/11 00:58:42;;;;;;;0.22;0.22;;;;;;;;;;4985329;28;20116;-87
2022/01/11 01:01:08;;;;;;;0.00;0.00;;;;;;;;;;4980165;28;20101;-86
2022/01/11 01:03:35;;;;;;;0.10;0.10;;;;;;;;;;4983615;28;20121;-86
2022/01/11 01:06:01;;;;;;;0.13;0.13;;;;;;;;;;4978705;28;20071;-87
2022/01/11 01:08:27;;;;;;;1.50;0.60;;;;;;;;;;4979281;28;20035;-87
2022/01/11 01:10:53;;;;;;;0.45;0.45;;;;;;;;;;4986698;28;20297;-86
2022/01/11 01:13:24;;;;;;;0.10;0.10;;;;;;;;;;4978935;28;20058;-86
2022/01/11 01:15:51;;;;;;;0.00;0.00;;;;;;;;;;4985420;28;20092;-85
2022/01/11 01:18:21;;;;;;;0.10;0.10;;;;;;;;;;4989537;28;20061;-86
2022/01/11 01:20:47;;;;;;;0.25;0.25;;;;;;;;;;4982615;28;20034;-86
2022/01/11 01:23:14;;;;;;;0.20;0.20;;;;;;;;;;4985506;28;20706;-87
2022/01/11 01:25:41;;;;;;;0.00;0.00;;;;;;;;;;4984484;28;20051;-86
2022/01/11 01:28:07;;;;;;;0.10;0.10;;;;;;;;;;4982032;28;20928;-86
2022/01/11 01:30:34;;;;;;;0.40;0.40;;;;;;;;;;4976695;28;20038;-87
2022/01/11 01:33:00;;;;;;;0.20;0.20;;;;;;;;;;4978393;28;20031;-85
2022/01/11 01:35:31;;;;;;;0.10;0.10;;;;;;;;;;4979820;28;20121;-85
2022/01/11 01:37:57;;;;;;;2.80;2.08;;;;;;;;;;4985337;28;20038;-85
2022/01/11 01:40:23;;;;;;;0.17;0.17;;;;;;;;;;4973999;28;20031;-85
2022/01/11 01:42:51;;;;;;;0.03;0.03;;;;;;;;;;4978387;28;20121;-85
2022/01/11 01:45:17;;;;;;;0.10;0.10;;;;;;;;;;4982132;28;20057;-85
2022/01/11 01:47:44;;;;;;;0.00;0.00;;;;;;;;;;4978221;28;20026;-86
2022/01/11 01:50:11;;;;;;;0.10;0.10;;;;;;;;;;4981148;28;20081;-86
2022/01/11 01:52:37;;;;;;;;;;;;;;;;;;4973899;28;20054;-86
2022/01/11 01:55:03;;;;;;;0.10;0.10;;;;;;;;;;4973093;28;20450;-87
2022/01/11 01:57:30;;;;;;;0.20;0.20;;;;;;;;;;4978672;28;20174;-86
2022/01/11 01:59:56;;;;;;;0.00;0.00;;;;;;;;;;4975178;28;20042;-86
2022/01/11 02:02:22;;;;;;;0.10;0.10;;;;;;;;;;4977729;28;20487;-86
2022/01/11 02:04:50;;;;;;;0.40;0.40;;;;;;;;;;4975495;28;20070;-86
2022/01/11 02:07:16;;;;;;;0.00;0.00;;;;;;;;;;4984211;28;20042;-86
2022/01/11 02:09:42;;;;;;;0.10;0.10;;;;;;;;;;4978542;28;21568;-87
2022/01/11 02:12:08;;;;;;;0.10;0.10;;;;;;;;;;4979435;28;20038;-87
2022/01/11 02:14:34;;;;;;;0.10;0.10;;;;;;;;;;4973346;28;20039;-86
2022/01/11 02:17:00;;;;;;;1.25;1.13;;;;;;;;;;4982367;28;20105;-86
2022/01/11 02:19:27;;;;;;;0.05;0.05;;;;;;;;;;4982119;28;20162;-85
2022/01/11 02:21:53;;;;;;;1.23;0.63;;;;;;;;;;4976926;28;20070;-86
2022/01/11 02:24:19;;;;;;;0.10;0.10;;;;;;;;;;4971777;28;20512;-87
2022/01/11 02:26:45;;;;;;;0.40;0.40;;;;;;;;;;4971656;28;20039;-86
2022/01/11 02:29:11;;;;;;;0.30;0.30;;;;;;;;;;4971263;28;20220;-86
2022/01/11 02:31:38;;;;;;;0.10;0.10;;;;;;;;;;4976175;28;20030;-85
2022/01/11 02:34:04;;;;;;;0.10;0.10;;;;;;;;;;4984596;28;20087;-86
2022/01/11 02:36:31;;;;;;;0.20;0.20;;;;;;;;;;4979931;28;20125;-86
2022/01/11 02:38:58;;;;;;;0.30;0.30;;;;;;;;;;4982109;28;20030;-85
2022/01/11 02:41:26;;;;;;;0.08;0.08;;;;;;;;;;4983077;28;20129;-87
2022/01/11 02:43:52;;;;;;;0.10;0.10;;;;;;;;;;4983529;28;20507;-86
2022/01/11 02:46:20;;;;;;;1.75;0.80;;;;;;;;;;4976274;28;20558;-86
2022/01/11 02:48:46;;;;;;;0.10;0.10;;;;;;;;;;4979418;28;20026;-85
2022/01/11 02:51:13;;;;;;;0.10;0.10;;;;;;;;;;4975321;28;20049;-85
2022/01/11 02:53:40;;;;;;;0.10;0.10;;;;;;;;;;4975212;28;20034;-85
2022/01/11 02:56:06;;;;;;;0.03;0.03;;;;;;;;;;4980240;28;20117;-85
2022/01/11 02:58:32;;;;;;;0.30;0.30;;;;;;;;;;4970651;28;20066;-85
2022/01/11 03:00:58;;;;;;;0.10;0.10;;;;;;;;;;4971503;28;20816;-86
2022/01/11 03:03:25;;;;;;;0.00;0.00;;;;;;;;;;4997397;28;20062;-85
2022/01/11 03:05:55;;;;;;;0.00;0.00;;;;;;;;;;4978723;28;20069;-86
2022/01/11 03:08:22;;;;;;;0.00;0.00;;;;;;;;;;4973631;28;20031;-87
2022/01/11 03:10:49;;;;;;;0.10;0.10;;;;;;;;;;4973225;28;20061;-85
2022/01/11 03:13:16;;;;;;;0.00;0.00;;;;;;;;;;4973324;28;20053;-85
2022/01/11 03:15:42;;;;;;;;;;;;;;;;;;4972163;28;20090;-86
2022/01/11 03:18:08;;;;;;;0.00;0.00;;;;;;;;;;4980821;28;19975;-85
2022/01/11 03:20:35;;;;;;;0.10;0.10;;;;;;;;;;4983670;28;20496;-87
2022/01/11 03:23:02;;;;;;;0.10;0.10;;;;;;;;;;4976798;28;20061;-86
2022/01/11 03:25:28;;;;;;;0.20;0.20;;;;;;;;;;4975459;28;20042;-87
2022/01/11 03:27:54;;;;;;;0.22;0.22;;;;;;;;;;4969547;28;20531;-85
2022/01/11 03:30:20;;;;;;;0.10;0.10;;;;;;;;;;4980751;28;20038;-86
2022/01/11 03:32:47;;;;;;;0.10;0.10;;;;;;;;;;4972265;28;20057;-85
2022/01/11 03:35:13;;;;;;;0.22;0.22;;;;;;;;;;4974393;28;20042;-85
2022/01/11 03:37:41;;;;;;;0.17;0.17;;;;;;;;;;4973089;28;20085;-85
2022/01/11 03:40:08;;;;;;;0.30;0.30;;;;;;;;;;4975870;28;20027;-86
2022/01/11 03:42:34;;;;;;;0.10;0.10;;;;;;;;;;4972157;28;20038;-85
2022/01/11 03:45:01;;;;;;;0.03;0.03;;;;;;;;;;4970022;28;20240;-96
2022/01/11 03:47:27;;;;;;;0.10;0.10;;;;;;;;;;4985304;28;20061;-94
2022/01/11 03:49:53;;;;;;;0.45;0.20;;;;;;;;;;4986438;28;20026;-93
2022/01/11 03:52:19;;;;;;;0.40;0.40;;;;;;;;;;4977365;28;20034;-93
2022/01/11 03:57:21;;;;;;;0.00;0.00;;;;;;;;;;4976531;28;20039;-93
2022/01/11 03:59:47;;;;;;;0.55;0.25;;;;;;;;;;4991997;28;20109;-92
2022/01/11 04:02:13;;;;;;;0.30;0.30;;;;;;;;;;4981771;28;20153;-93
2022/01/11 04:04:39;;;;;;;19.47;1.40;;;;;;;;;;4981598;28;20022;-93
2022/01/11 04:07:05;;;;;;;2.35;0.90;;;;;;;;;;4971572;28;20372;-92
2022/01/11 04:09:31;;;;;;;0.10;0.10;;;;;;;;;;4976713;28;20532;-93
2022/01/11 04:11:58;;;;;;;0.10;0.10;;;;;;;;;;5000706;28;20408;-94
2022/01/11 04:14:26;;;;;;;0.00;0.00;;;;;;;;;;4988399;28;20494;-92
2022/01/11 04:16:53;;;;;;;0.00;0.00;;;;;;;;;;4976710;28;20035;-93
2022/01/11 04:19:22;;;;;;;0.05;0.05;;;;;;;;;;4987176;28;20113;-92
2022/01/11 04:21:49;;;;;;;0.17;0.17;;;;;;;;;;4972862;28;20030;-92
2022/01/11 04:24:15;;;;;;;0.20;0.20;;;;;;;;;;4982898;28;20033;-92
2022/01/11 04:26:41;;;;;;;0.10;0.10;;;;;;;;;;4978529;28;20182;-91
2022/01/11 04:29:07;;;;;;;1.65;0.38;;;;;;;;;;4977191;28;20030;-89
2022/01/11 04:31:33;;;;;;;0.03;0.03;;;;;;;;;;4977471;28;20034;-90
2022/01/11 04:33:59;;;;;;;0.20;0.20;;;;;;;;;;4991032;28;20057;-89
2022/01/11 04:36:25;;;;;;;0.25;0.25;;;;;;;;;;4977111;28;20148;-90
2022/01/11 04:38:52;;;;;;;0.20;0.20;;;;;;;;;;4983776;28;20035;-92
2022/01/11 04:41:18;;;;;;;0.07;0.07;;;;;;;;;;4984719;28;20018;-91
2022/01/11 04:43:44;;;;;;;0.00;0.00;;;;;;;;;;4974826;28;20106;-89
2022/01/11 04:46:10;;;;;;;0.00;0.00;;;;;;;;;;4984162;28;20035;-90
2022/01/11 04:48:36;;;;;;;0.00;0.00;;;;;;;;;;4982219;28;20107;-90
2022/01/11 04:51:04;;;;;;;0.10;0.10;;;;;;;;;;4980724;28;20037;-91
2022/01/11 04:53:30;;;;;;;0.03;0.03;;;;;;;;;;4979652;28;20349;-91
2022/01/11 04:55:57;;;;;;;0.10;0.10;;;;;;;;;;4976508;28;20125;-91
2022/01/11 04:58:23;;;;;;;0.10;0.10;;;;;;;;;;4976042;28;20122;-91
2022/01/11 05:00:49;;;;;;;0.00;0.00;;;;;;;;;;4983802;28;20121;-90
2022/01/11 05:03:15;;;;;;;0.03;0.03;;;;;;;;;;4977843;28;20034;-91
2022/01/11 05:05:41;;;;;;;0.30;0.30;;;;;;;;;;4974337;28;20078;-90
2022/01/11 05:08:07;;;;;;;0.00;0.00;;;;;;;;;;4984177;28;20121;-90
2022/01/11 05:10:33;;;;;;;0.00;0.00;;;;;;;;;;4977111;28;20089;-91
2022/01/11 05:12:59;;;;;;;0.10;0.10;;;;;;;;;;4979359;28;20030;-91
2022/01/11 05:15:26;;;;;;;12.52;0.75;;;;;;;;;;4984349;28;20442;-89
2022/01/11 05:17:53;;;;;;;0.00;0.00;;;;;;;;;;4982019;28;20062;-89
2022/01/11 05:20:19;;;;;;;0.00;0.00;;;;;;;;;;4978738;28;20030;-89
2022/01/11 05:22:45;;;;;;;0.10;0.10;;;;;;;;;;4982166;28;20819;-87
2022/01/11 05:25:14;;;;;;;0.00;0.00;;;;;;;;;;4986138;28;20037;-89
2022/01/11 05:27:40;;;;;;;0.22;0.22;;;;;;;;;;4982052;28;20053;-88
2022/01/11 05:30:08;;;;;;;0.20;0.20;;;;;;;;;;4986088;28;20031;-88
2022/01/11 05:32:35;;;;;;;0.20;0.20;;;;;;;;;;4985931;28;20052;-88
2022/01/11 05:35:02;;;;;;;0.10;0.10;;;;;;;;;;4984751;28;20026;-88
2022/01/11 05:37:28;;;;;;;0.45;0.45;;;;;;;;;;4986669;28;20065;-90
2022/01/11 05:39:54;;;;;;;0.08;0.08;;;;;;;;;;4973550;28;20030;-89
2022/01/11 05:42:21;;;;;;;0.33;0.33;;;;;;;;;;4987841;28;20026;-92
2022/01/11 05:44:47;;;;;;;1.23;0.30;;;;;;;;;;4985533;28;20562;-94
2022/01/11 05:47:13;;;;;;;0.00;0.00;;;;;;;;;;4988171;28;20042;-91
2022/01/11 05:49:39;;;;;;;0.20;0.20;;;;;;;;;;4991501;28;20082;-94
2022/01/11 05:52:05;;;;;;;0.03;0.03;;;;;;;;;;4990937;28;20109;-93
2022/01/11 05:54:31;;;;;;;0.10;0.10;;;;;;;;;;4986771;28;20479;-93
2022/01/11 05:56:57;;;;;;;0.00;0.00;;;;;;;;;;4976213;28;20332;-94
2022/01/11 05:59:23;;;;;;;0.10;0.10;;;;;;;;;;4986819;28;20038;-93
2022/01/11 06:01:49;;;;;;;0.10;0.10;;;;;;;;;;4984174;28;20391;-94
2022/01/11 06:04:15;;;;;;;1.00;1.00;;;;;;;;;;4985708;28;20435;-92
2022/01/11 06:06:41;;;;;;;0.25;0.25;;;;;;;;;;4980443;28;20034;-93
2022/01/11 06:09:07;;;;;;;0.00;0.00;;;;;;;;;;4977698;28;20064;-92
2022/01/11 06:11:33;;;;;;;0.87;0.43;;;;;;;;;;4977659;28;20165;-94
2022/01/11 06:13:59;;;;;;;0.00;0.00;;;;;;;;;;4987985;28;20033;-91
2022/01/11 06:16:25;;;;;;;0.10;0.10;;;;;;;;;;4988093;28;20027;-93
2022/01/11 06:18:51;;;;;;;0.00;0.00;;;;;;;;;;4987383;28;20034;-91
2022/01/11 06:21:18;;;;;;;0.10;0.10;;;;;;;;;;4985501;28;20037;-93
2022/01/11 06:23:45;;;;;;;0.10;0.10;;;;;;;;;;4986573;28;20549;-92
2022/01/11 06:26:12;;;;;;;2.60;0.30;;;;;;;;;;4988756;28;20069;-93
2022/01/11 06:28:38;;;;;;;0.30;0.30;;;;;;;;;;4987058;28;20027;-89
2022/01/11 06:31:04;;;;;;;0.93;0.28;;;;;;;;;;4985172;28;20038;-93
2022/01/11 06:33:30;;;;;;;0.00;0.00;;;;;;;;;;4990925;28;20305;-90
2022/01/11 06:35:56;;;;;;;0.10;0.10;;;;;;;;;;4984931;28;20509;-90
2022/01/11 06:38:22;;;;;;;0.10;0.10;;;;;;;;;;4982593;28;20038;-89
2022/01/11 06:40:49;;;;;;;0.10;0.10;;;;;;;;;;4981789;28;20031;-90
2022/01/11 06:43:15;;;;;;;0.20;0.20;;;;;;;;;;4981710;28;20097;-92
2022/01/11 06:45:41;;;;;;;0.35;0.20;;;;;;;;;;4987104;28;20385;-91
2022/01/11 06:48:08;;;;;;;0.00;0.00;;;;;;;;;;4983110;28;20027;-93
2022/01/11 06:50:34;;;;;;;0.35;0.35;;;;;;;;;;4990519;28;20110;-92
2022/01/11 06:53:00;;;;;;;1.63;1.38;;;;;;;;;;4989431;28;20073;-94
2022/01/11 06:55:26;;;;;;;0.10;0.10;;;;;;;;;;4991396;28;20588;-93
2022/01/11 06:57:52;;;;;;;0.52;0.52;;;;;;;;;;4984235;28;20073;-93
2022/01/11 07:00:19;;;;;;;0.10;0.10;;;;;;;;;;4981402;28;20019;-92
2022/01/11 07:02:49;;;;;;;0.30;0.30;;;;;;;;;;4983733;28;20034;-91
2022/01/11 07:05:15;;;;;;;0.00;0.00;;;;;;;;;;4988275;28;20034;-92
2022/01/11 07:07:41;;;;;;;0.10;0.10;;;;;;;;;;4986555;28;20048;-92
2022/01/11 07:10:08;;;;;;;0.38;0.38;;;;;;;;;;4987977;28;20026;-93
2022/01/11 07:12:34;;;;;;;0.10;0.10;;;;;;;;;;4977442;28;20113;-93
2022/01/11 07:15:00;;;;;;;0.10;0.10;;;;;;;;;;4988014;28;20133;-90
2022/01/11 07:17:26;;;;;;;0.10;0.10;;;;;;;;;;4986539;28;20094;-90
2022/01/11 07:19:52;;;;;;;0.10;0.10;;;;;;;;;;4985932;28;20430;-89
2022/01/11 07:22:18;;;;;;;0.63;0.63;;;;;;;;;;4984248;28;20076;-89
2022/01/11 07:24:45;;;;;;;0.10;0.10;;;;;;;;;;4986647;28;20300;-90
2022/01/11 07:27:11;;;;;;;0.00;0.00;;;;;;;;;;4986993;28;20027;-91
2022/01/11 07:29:37;;;;;;;0.00;0.00;;;;;;;;;;4982632;28;20277;-91
2022/01/11 07:32:03;;;;;;;0.10;0.10;;;;;;;;;;4977129;28;20391;-90
2022/01/11 07:34:29;;;;;;;0.20;0.20;;;;;;;;;;4981299;28;20035;-90
2022/01/11 07:36:55;;;;;;;0.30;0.30;;;;;;;;;;4985118;28;20137;-89
2022/01/11 07:39:21;;;;;;;0.32;0.32;;;;;;;;;;4987084;28;20026;-89
2022/01/11 07:41:47;;;;;;;0.10;0.10;;;;;;;;;;4982527;28;20035;-87
2022/01/11 07:44:14;;;;;;;0.10;0.10;;;;;;;;;;4981188;28;20061;-93
2022/01/11 07:46:40;;;;;;;4.07;2.72;;;;;;;;;;4975006;28;20125;-93
2022/01/11 07:49:07;;;;;;;0.10;0.10;;;;;;;;;;4990076;28;20026;-93
2022/01/11 07:51:33;;;;;;;4.18;1.67;;;;;;;;;;4988584;28;20034;-92
2022/01/11 07:53:59;;;;;;;0.00;0.00;;;;;;;;;;4990073;28;20364;-94
2022/01/11 07:56:25;;;;;;;0.20;0.20;;;;;;;;;;4987996;28;20042;-91
2022/01/11 07:58:51;;;;;;;0.00;0.00;;;;;;;;;;5004773;28;20713;-94
2022/01/11 08:01:17;;;;;;;0.00;0.00;;;;;;;;;;4986519;28;20035;-93
2022/01/11 08:03:46;;;;;;;0.10;0.10;;;;;;;;;;4971614;28;20034;-93
2022/01/11 08:06:12;;;;;;;0.03;0.03;;;;;;;;;;5004776;28;20038;-94
2022/01/11 08:08:39;;;;;;;0.30;0.30;;;;;;;;;;4981449;28;20566;-93
2022/01/11 08:11:05;;;;;;;0.83;0.83;;;;;;;;;;4989307;28;20146;-93
2022/01/11 08:13:31;;;;;;;0.10;0.10;;;;;;;;;;4990054;28;20554;-94
2022/01/11 08:15:57;;;;;;;0.00;0.00;;;;;;;;;;4986924;28;20288;-93
2022/01/11 08:18:23;;;;;;;0.08;0.08;;;;;;;;;;4984256;28;20025;-93
2022/01/11 08:20:49;;;;;;;0.10;0.10;;;;;;;;;;4987821;28;20483;-93
2022/01/11 08:23:15;;;;;;;0.13;0.13;;;;;;;;;;4987100;28;20408;-93
2022/01/11 08:25:41;;;;;;;0.15;0.10;;;;;;;;;;4986285;28;20747;-94
2022/01/11 08:28:09;;;;;;;0.00;0.00;;;;;;;;;;4989954;28;20037;-93
2022/01/11 08:30:35;;;;;;;0.10;0.10;;;;;;;;;;4970476;28;20027;-93
2022/01/11 08:33:04;;;;;;;0.20;0.20;;;;;;;;;;4988963;28;20069;-94
2022/01/11 08:35:30;;;;;;;0.00;0.00;;;;;;;;;;4989373;28;20026;-94
2022/01/11 08:37:56;;;;;;;0.08;0.08;;;;;;;;;;4990369;28;20038;-94
2022/01/11 08:40:23;;;;;;;0.10;0.10;;;;;;;;;;4985977;28;20403;-93
2022/01/11 08:42:49;;;;;;;0.20;0.20;;;;;;;;;;4986903;28;20062;-93
2022/01/11 08:45:15;;;;;;;0.20;0.20;;;;;;;;;;4986450;28;20054;-93
2022/01/11 08:47:41;;;;;;;3.77;1.13;;;;;;;;;;4991809;28;20182;-95
2022/01/11 08:50:10;;;;;;;0.20;0.20;;;;;;;;;;4993188;28;20117;-94
2022/01/11 08:52:36;;;;;;;0.00;0.00;;;;;;;;;;4993546;28;20061;-94
2022/01/11 08:55:03;;;;;;;0.32;0.32;;;;;;;;;;4991770;28;20030;-91
2022/01/11 08:57:29;;;;;;;0.20;0.20;;;;;;;;;;4988132;28;20113;-93
2022/01/11 08:59:55;;;;;;;0.10;0.10;;;;;;;;;;4983679;28;20034;-93
2022/01/11 09:02:21;;;;;;;0.20;0.20;;;;;;;;;;4992546;28;20038;-92
2022/01/11 09:04:48;;;;;;;0.10;0.10;;;;;;;;;;5001042;28;20035;-94
2022/01/11 09:07:14;;;;;;;0.45;0.43;;;;;;;;;;4992975;28;20034;-93
2022/01/11 09:09:40;;;;;;;0.10;0.10;;;;;;;;;;4993426;28;20495;-93
2022/01/11 09:12:08;;;;;;;0.20;0.20;;;;;;;;;;4985967;28;20037;-94
2022/01/11 09:14:36;;;;;;;0.10;0.10;;;;;;;;;;4992796;28;20104;-94
2022/01/11 09:17:03;;;;;;;0.00;0.00;;;;;;;;;;4983335;28;20049;-93
2022/01/11 09:19:29;;;;;;;0.10;0.10;;;;;;;;;;4980483;28;20808;-94
2022/01/11 09:21:56;;;;;;;0.38;0.20;;;;;;;;;;4992599;28;20510;-94
2022/01/11 09:24:29;;;;;;;0.10;0.10;;;;;;;;;;4992846;28;20528;-94
2022/01/11 09:26:55;;;;;;;0.00;0.00;;;;;;;;;;4984468;28;20039;-95
2022/01/11 09:29:22;;;;;;;0.00;0.00;;;;;;;;;;4981206;28;20090;-95
2022/01/11 09:31:48;;;;;;;0.38;0.20;;;;;;;;;;4974540;28;20033;-93
2022/01/11 09:34:14;;;;;;;0.52;0.30;;;;;;;;;;4988543;28;20031;-94
2022/01/11 09:36:40;;;;;;;0.00;0.00;;;;;;;;;;4992845;28;20045;-93
2022/01/11 09:39:07;;;;;;;0.10;0.10;;;;;;;;;;4990324;28;20779;-93
2022/01/11 09:41:34;;;;;;;0.20;0.20;;;;;;;;;;4992788;28;20033;-94
2022/01/11 09:44:00;;;;;;;0.13;0.13;;;;;;;;;;4990247;28;20046;-94
2022/01/11 09:46:26;;;;;;;0.15;0.15;;;;;;;;;;4988940;28;20049;-94
2022/01/11 09:48:52;;;;;;;0.07;0.07;;;;;;;;;;4991916;28;20036;-94
2022/01/11 09:51:18;;;;;;;0.17;0.17;;;;;;;;;;4992709;28;20030;-94
2022/01/11 09:53:46;;;;;;;0.10;0.10;;;;;;;;;;4977538;28;20061;-94
2022/01/11 09:56:13;;;;;;;0.30;0.30;;;;;;;;;;4984997;28;20022;-94
2022/01/11 09:58:39;;;;;;;0.10;0.10;;;;;;;;;;4979152;28;20042;-94
2022/01/11 10:01:05;;;;;;;0.10;0.10;;;;;;;;;;4973098;28;20114;-94
2022/01/11 10:03:33;;;;;;;0.10;0.10;;;;;;;;;;4973418;28;20023;-94
2022/01/11 10:06:14;;;;;;;0.30;0.30;;;;;;;;;;4988041;28;20046;-94
2022/01/11 10:08:40;;;;;;;0.03;0.03;;;;;;;;;;4988150;28;20041;-94
2022/01/11 10:11:06;;;;;;;0.90;0.57;;;;;;;;;;4991177;28;20506;-94
2022/01/11 10:13:32;;;;;;;0.03;0.03;;;;;;;;;;5006806;28;20037;-94
2022/01/11 10:15:58;;;;;;;20.40;3.72;;;;;;;;;;5005433;28;20030;-94
2022/01/11 10:18:37;;;;;;;0.35;0.35;;;;;;;;;;4987862;28;20026;-94
2022/01/11 10:21:22;;;;;;;1.55;0.77;;;;;;;;;;4973266;28;20043;-94
2022/01/11 10:23:48;;;;;;;0.10;0.10;;;;;;;;;;4988457;28;20047;-95
2022/01/11 10:26:14;;;;;;;0.00;0.00;;;;;;;;;;4989275;28;20773;-94
2022/01/11 10:28:40;;;;;;;0.20;0.20;;;;;;;;;;4991714;28;20023;-94
2022/01/11 10:31:06;;;;;;;0.20;0.20;;;;;;;;;;4990882;28;20062;-94
2022/01/11 10:33:32;;;;;;;0.10;0.10;;;;;;;;;;4992080;28;20049;-94
2022/01/11 10:35:58;;;;;;;0.10;0.10;;;;;;;;;;4991565;28;20503;-95
2022/01/11 10:38:26;;;;;;;0.20;0.20;;;;;;;;;;5007139;28;20450;-94
2022/01/11 10:40:52;;;;;;;0.20;0.20;;;;;;;;;;4991663;28;20030;-94
2022/01/11 10:43:19;;;;;;;0.03;0.03;;;;;;;;;;4991129;28;20034;-94
2022/01/11 10:45:47;;;;;;;0.10;0.10;;;;;;;;;;5005717;28;20188;-93
2022/01/11 10:48:14;;;;;;;0.28;0.17;;;;;;;;;;5005992;28;20023;-94
2022/01/11 10:50:42;;;;;;;0.00;0.00;;;;;;;;;;4990515;28;20038;-93
2022/01/11 10:53:13;;;;;;;0.10;0.10;;;;;;;;;;4991166;28;20034;-95
2022/01/11 10:55:39;;;;;;;0.20;0.20;;;;;;;;;;5006549;28;20023;-95
2022/01/11 10:58:07;;;;;;;0.10;0.10;;;;;;;;;;4991034;28;20089;-94
2022/01/11 11:00:37;;;;;;;4.28;1.05;;;;;;;;;;5006123;28;20081;-95
2022/01/11 11:03:04;;;;;;;0.00;0.00;;;;;;;;;;4989596;28;20038;-94
2022/01/11 11:05:35;;;;;;;0.32;0.32;;;;;;;;;;4977006;28;20031;-95
2022/01/11 11:08:03;;;;;;;0.20;0.20;;;;;;;;;;4994889;28;20108;-94
2022/01/11 11:10:36;;;;;;;0.20;0.20;;;;;;;;;;4988819;28;20077;-95
2022/01/11 11:13:03;;;;;;;0.10;0.10;;;;;;;;;;4990643;28;20034;-93
2022/01/11 11:15:29;;;;;;;;;;;;;;;;;;4990062;28;20041;-95
2022/01/11 11:17:55;;;;;;;0.10;0.10;;;;;;;;;;4988157;28;19933;-95
2022/01/11 11:20:21;;;;;;;0.10;0.10;;;;;;;;;;4986734;28;20741;-95
2022/01/11 11:22:47;;;;;;;0.10;0.10;;;;;;;;;;4988997;28;20057;-94
2022/01/11 11:25:14;;;;;;;0.10;0.10;;;;;;;;;;4987042;28;20127;-94
2022/01/11 11:27:40;;;;;;;0.30;0.30;;;;;;;;;;4989294;28;20038;-94
2022/01/11 11:30:06;;;;;;;0.80;0.80;;;;;;;;;;4989569;28;20050;-95
2022/01/11 11:32:33;;;;;;;0.57;0.57;;;;;;;;;;4989270;28;20018;-94
2022/01/11 11:34:59;;;;;;;0.20;0.20;;;;;;;;;;4990107;28;20048;-95
2022/01/11 11:37:34;;;;;;;0.73;0.67;;;;;;;;;;4987799;28;20065;-94
2022/01/11 11:40:04;;;;;;;0.10;0.10;;;;;;;;;;4986058;28;20039;-94
2022/01/11 11:42:30;;;;;;;0.60;0.60;;;;;;;;;;4985734;28;20121;-93
2022/01/11 11:44:58;;;;;;;0.40;0.40;;;;;;;;;;4988077;28;20054;-94
2022/01/11 11:47:32;;;;;;;0.70;0.70;;;;;;;;;;4983662;28;20046;-94
2022/01/11 11:50:00;;;;;;;0.30;0.30;;;;;;;;;;5005345;28;20050;-94
2022/01/11 11:52:37;;;;;;;0.20;0.20;;;;;;;;;;4990350;28;20038;-94
2022/01/11 11:55:03;;;;;;;0.10;0.10;;;;;;;;;;4990223;28;20419;-95
2022/01/11 11:57:33;;;;;;;0.30;0.25;;;;;;;;;;5005428;28;20566;-95
2022/01/11 12:00:01;;;;;;;0.20;0.10;;;;;;;;;;4990165;28;20034;-94
2022/01/11 12:02:40;;;;;;;0.10;0.10;;;;;;;;;;4991232;28;20023;-93
2022/01/11 12:05:09;;;;;;;0.10;0.10;;;;;;;;;;4989140;28;20139;-94
2022/01/11 12:07:41;;;;;;;0.20;0.20;;;;;;;;;;4997872;28;20042;-94
2022/01/11 12:10:12;;;;;;;1.20;0.28;;;;;;;;;;4972794;28;20026;-94
2022/01/11 12:12:53;;;;;;;0.00;0.00;;;;;;;;;;4985925;28;20054;-95
2022/01/11 12:15:22;;;;;;;0.17;0.17;;;;;;;;;;4986461;28;20147;-94
2022/01/11 12:18:08;;;;;;;0.35;0.35;;;;;;;;;;5005383;28;20031;-94
2022/01/11 12:20:40;;;;;;;0.10;0.10;;;;;;;;;;4993174;28;20034;-94
2022/01/11 12:23:06;;;;;;;0.57;0.40;;;;;;;;;;4993842;28;20037;-94
2022/01/11 12:25:37;;;;;;;0.28;0.28;;;;;;;;;;4992164;28;20054;-95
2022/01/11 12:28:07;;;;;;;0.10;0.10;;;;;;;;;;5008780;28;20035;-95
2022/01/11 12:30:33;;;;;;;0.10;0.10;;;;;;;;;;4992465;28;20030;-94
2022/01/11 12:33:14;;;;;;;0.20;0.20;;;;;;;;;;4993381;28;20113;-94
2022/01/11 12:35:54;;;;;;;0.93;0.55;;;;;;;;;;4993517;28;20029;-94
2022/01/11 12:38:21;;;;;;;0.10;0.10;;;;;;;;;;4979808;28;20042;-94
2022/01/11 12:40:47;;;;;;;0.10;0.10;;;;;;;;;;4990023;28;20019;-93
2022/01/11 12:43:19;;;;;;;0.00;0.00;;;;;;;;;;4977245;28;20042;-94
2022/01/11 12:45:58;;;;;;;0.43;0.43;;;;;;;;;;4992231;28;20030;-95
2022/01/11 12:48:42;;;;;;;0.28;0.28;;;;;;;;;;4991833;28;20471;-93
2022/01/11 12:51:08;;;;;;;0.10;0.10;;;;;;;;;;4990207;28;20453;-95
2022/01/11 12:53:34;;;;;;;3.17;1.00;;;;;;;;;;4974936;28;20389;-94
2022/01/11 12:56:00;;;;;;;0.07;0.07;;;;;;;;;;4974805;28;20054;-94
2022/01/11 12:58:26;;;;;;;0.10;0.10;;;;;;;;;;4986416;28;20030;-95
2022/01/11 13:00:52;;;;;;;0.10;0.10;;;;;;;;;;5008308;28;20025;-93
2022/01/11 13:03:18;;;;;;;0.13;0.13;;;;;;;;;;4993273;28;20030;-94
2022/01/11 13:05:44;;;;;;;0.50;0.50;;;;;;;;;;4991965;28;20046;-94
2022/01/11 13:08:11;;;;;;;0.50;0.50;;;;;;;;;;4993309;28;20514;-94
2022/01/11 13:10:39;;;;;;;0.10;0.10;;;;;;;;;;4991768;28;20027;-94
2022/01/11 13:13:12;;;;;;;0.20;0.20;;;;;;;;;;4992672;28;20109;-95
2022/01/11 13:15:40;;;;;;;0.15;0.15;;;;;;;;;;4974114;28;20587;-94
2022/01/11 13:18:10;;;;;;;0.10;0.10;;;;;;;;;;4992621;28;20093;-94
2022/01/11 13:20:38;;;;;;;1.25;0.60;;;;;;;;;;4992807;28;20094;-95
2022/01/11 13:23:15;;;;;;;0.10;0.10;;;;;;;;;;4992841;28;20041;-94
2022/01/11 13:25:48;;;;;;;0.00;0.00;;;;;;;;;;4992188;28;20057;-95
2022/01/11 13:28:15;;;;;;;0.45;0.45;;;;;;;;;;4977940;28;20030;-94
2022/01/11 13:30:46;;;;;;;0.20;0.20;;;;;;;;;;4992424;28;20062;-95
2022/01/11 13:33:22;;;;;;;0.10;0.10;;;;;;;;;;5004529;28;20061;-94
2022/01/11 13:35:48;;;;;;;0.10;0.10;;;;;;;;;;5007008;28;20253;-95
2022/01/11 13:38:14;;;;;;;0.30;0.30;;;;;;;;;;4984155;28;20030;-95
2022/01/11 13:40:41;;;;;;;0.10;0.10;;;;;;;;;;4984980;28;20038;-94
2022/01/11 13:43:08;;;;;;;0.10;0.10;;;;;;;;;;4992509;28;20034;-94
2022/01/11 13:45:35;;;;;;;0.10;0.10;;;;;;;;;;4992753;28;20043;-94
2022/01/11 13:48:12;;;;;;;0.10;0.10;;;;;;;;;;4991803;28;20034;-95
2022/01/11 13:50:47;;;;;;;0.13;0.13;;;;;;;;;;4992932;28;20122;-95
2022/01/11 13:53:23;;;;;;;0.10;0.10;;;;;;;;;;4992258;28;20538;-94
2022/01/11 13:55:49;;;;;;;0.10;0.10;;;;;;;;;;4988067;28;20058;-94
2022/01/11 13:58:16;;;;;;;0.13;0.13;;;;;;;;;;4980396;28;20057;-94
2022/01/11 14:00:42;;;;;;;;;;;;;;;;;;4991667;28;20026;-93
2022/01/11 14:03:14;;;;;;;1.05;0.50;;;;;;;;;;4988464;28;19910;-92
2022/01/11 14:05:40;;;;;;;0.10;0.10;;;;;;;;;;4992040;28;20046;-93
2022/01/11 14:08:09;;;;;;;0.10;0.10;;;;;;;;;;4990116;28;20034;-94
2022/01/11 14:10:37;;;;;;;0.00;0.00;;;;;;;;;;4989685;28;20038;-93
2022/01/11 14:13:07;;;;;;;0.10;0.10;;;;;;;;;;4991911;28;20058;-95
2022/01/11 14:15:34;;;;;;;0.13;0.13;;;;;;;;;;4979805;28;20110;-95
2022/01/11 14:18:00;;;;;;;0.10;0.10;;;;;;;;;;4983171;28;20077;-94
2022/01/11 14:20:30;;;;;;;0.20;0.20;;;;;;;;;;4990892;28;20027;-93
2022/01/11 14:22:58;;;;;;;0.75;0.75;;;;;;;;;;4989846;28;20060;-94
2022/01/11 14:25:55;;;;;;;0.10;0.10;;;;;;;;;;4988720;28;20038;-95
2022/01/11 14:28:28;;;;;;;0.38;0.38;;;;;;;;;;4987342;28;20117;-94
2022/01/11 14:30:56;;;;;;;0.10;0.10;;;;;;;;;;4989997;28;20030;-94
2022/01/11 14:33:27;;;;;;;0.38;0.20;;;;;;;;;;4990624;28;20030;-95
2022/01/11 14:35:59;;;;;;;0.10;0.10;;;;;;;;;;4983398;28;20031;-93
2022/01/11 14:38:37;;;;;;;0.10;0.10;;;;;;;;;;4991328;28;20113;-94
2022/01/11 14:41:04;;;;;;;0.35;0.35;;;;;;;;;;4990318;28;20026;-94
2022/01/11 14:43:30;;;;;;;1.15;0.30;;;;;;;;;;4990356;28;20117;-95
2022/01/11 14:45:57;;;;;;;0.20;0.20;;;;;;;;;;4989623;28;20046;-93
2022/01/11 14:48:41;;;;;;;0.63;0.45;;;;;;;;;;4987161;28;20069;-94